Southgate, MI (48195)

6:52 PM EST on November 22, 2014 (GMT -0500)
Castle and Burns St. | Change Station
CLOSE
Current Station
Personal Weather Station
Location: Southgate, MI
Elevation: 580 ft
Nearby Weather Stations

Elev 580 ft 42.21 °N, 83.19 °W | Updated 2 minutes ago

Overcast
Overcast
47.2 °F
Feels Like 47 °F
N
0.0
Wind Variable Wind from SW
Gusts 0.0 mph

Today
High -- | Low -- °F
--% Chance of Precip.
Yesterday
High -- | Low -- °F
Precip. -- in
7:31 AM 5:05 PM
New Moon, 0% visible
Pressure 29.99 in
Visibility 6.0 miles
Clouds Overcast 2700 ft
Windchill 47 °F
Dew Point 44 °F
Humidity 88%
Rainfall 0.05 in
Snow Depth Not available.
UV 0.0 out of 12
Pollen .10 out of 12
Air Quality Not available.
Flu Activity Not available.
METAR KDTW 222253Z 21009KT 6SM -DZ BR OVC027 08/06 A2997 RMK AO2 RAB49E51DZB51 SLP154 P0000 T00780056 $

More Conditions Fewer Conditions

Pressure 29.99 in
Visibility 6.0 miles
Clouds Overcast 2700 ft
Windchill 47 °F
Dew Point 44 °F
Humidity 88%
Rainfall 0.05 in
Snow Depth Not available.
UV 0.0 out of 12
Pollen .10 out of 12
Air Quality Not available.
Flu Activity Not available.
METAR KDTW 222253Z 21009KT 6SM -DZ BR OVC027 08/06 A2997 RMK AO2 RAB49E51DZB51 SLP154 P0000 T00780056 $

More Conditions Fewer Conditions

10-Day Weather Forecast

Almanac

Astronomy

Nov. 22, 2014 Rise Set
Actual Time
Civil Twilight
Nautical Twilight
Astronomical Twilight
Moon
Length of Visible Light
Length of Day
Tomorrow will be .
, % of the Moon is Illuminated

Today's Extremes

State Highs State Lows

Community

WunderPhotos

Upload Photos

1,772,928 photos uploaded!

WunderBlogs® & News

Nearby

Air Quality

  Air Quality AQ Index Pollutant
Not available.

Snow Depth

Station Depth Elevation

Earthquake Activity

City Distance Mag. Time & Date
Minimum magnitude displayed is 2.5.

Coastal Water Temperatures

Place Temperature

Nearby Weather Stations